Time;durP1;ratioP1;P1;durP2;ratioP2;P2;SDS_P1;SDS_P2;PMS_P1;PMS_P2;Temp;Humidity;BMP_temperature;BMP_pressure;BME280_temperature;BME280_humidity;BME280_pressure;Samples;Min_cycle;Max_cycle;Signal;HPM_P1;HPM_P2
2021/05/01 00:01:52;;;;;;;27.23;19.60;;;7.10;99.90;;;;;;6124287;23;20021;-78
2021/05/01 00:04:23;;;;;;;27.58;19.83;;;7.10;99.90;;;;;;6124809;23;20065;-78
2021/05/01 00:06:49;;;;;;;29.40;21.02;;;7.10;99.90;;;;;;6124833;23;20531;-78
2021/05/01 00:09:16;;;;;;;29.00;19.65;;;7.10;99.90;;;;;;6125042;23;20026;-78
2021/05/01 00:11:42;;;;;;;27.77;19.52;;;7.10;99.90;;;;;;6125915;23;20109;-79
2021/05/01 00:14:13;;;;;;;29.48;20.05;;;7.10;99.90;;;;;;6126265;23;20052;-79
2021/05/01 00:16:39;;;;;;;27.90;19.90;;;7.10;99.90;;;;;;6126581;23;20053;-78
2021/05/01 00:19:11;;;;;;;25.13;19.33;;;7.20;99.90;;;;;;6128313;23;20064;-78
2021/05/01 00:21:42;;;;;;;28.85;20.35;;;7.20;99.90;;;;;;6126846;23;20098;-78
2021/05/01 00:24:14;;;;;;;31.33;21.30;;;7.20;99.90;;;;;;6127288;23;20108;-79
2021/05/01 00:26:45;;;;;;;28.27;19.55;;;7.10;99.90;;;;;;6131302;23;20044;-79
2021/05/01 00:29:16;;;;;;;27.95;19.70;;;7.10;99.90;;;;;;6130644;23;20022;-79
2021/05/01 00:31:42;;;;;;;27.42;19.70;;;7.10;99.90;;;;;;6131408;23;20077;-79
2021/05/01 00:34:09;;;;;;;27.33;19.88;;;7.20;99.90;;;;;;6129257;23;20022;-78
2021/05/01 00:36:35;;;;;;;26.65;20.15;;;7.20;99.90;;;;;;6131786;23;20026;-79
2021/05/01 00:39:06;;;;;;;30.50;20.98;;;7.20;99.90;;;;;;6132312;23;20057;-79
2021/05/01 00:41:38;;;;;;;26.40;18.98;;;7.30;99.90;;;;;;6132000;23;20038;-79
2021/05/01 00:44:06;;;;;;;27.85;20.20;;;7.30;99.90;;;;;;6132174;23;20354;-78
2021/05/01 00:46:37;;;;;;;28.13;21.23;;;7.30;99.90;;;;;;6132472;23;20057;-79
2021/05/01 00:49:09;;;;;;;31.00;20.40;;;7.30;99.90;;;;;;6132233;23;20086;-79
2021/05/01 00:51:35;;;;;;;30.10;20.95;;;7.40;99.90;;;;;;6131756;23;20014;-79
2021/05/01 00:54:01;;;;;;;28.80;19.75;;;7.40;99.90;;;;;;6131537;23;20018;-80
2021/05/01 00:56:33;;;;;;;31.95;21.92;;;7.40;99.90;;;;;;6131290;23;20052;-79
2021/05/01 00:59:04;;;;;;;30.63;21.27;;;7.40;99.90;;;;;;6131710;23;20053;-79
2021/05/01 01:01:31;;;;;;;32.75;21.77;;;7.40;99.90;;;;;;6131376;23;20018;-79
2021/05/01 01:03:57;;;;;;;28.30;20.05;;;7.40;99.90;;;;;;6131143;23;20026;-79
2021/05/01 01:06:28;;;;;;;29.90;21.13;;;7.40;99.90;;;;;;6131396;23;20018;-79
2021/05/01 01:08:55;;;;;;;29.50;21.10;;;7.30;99.90;;;;;;6131474;23;20081;-79
2021/05/01 01:11:26;;;;;;;38.00;26.13;;;7.30;99.90;;;;;;6131285;23;20402;-79
2021/05/01 01:14:00;;;;;;;50.60;34.58;;;7.30;99.90;;;;;;6132140;23;20041;-79
2021/05/01 01:16:29;;;;;;;39.58;28.02;;;7.30;99.90;;;;;;6131315;23;20032;-79
2021/05/01 01:18:56;;;;;;;33.17;22.20;;;7.30;99.90;;;;;;6130918;23;20021;-79
2021/05/01 01:21:23;;;;;;;34.40;22.27;;;7.40;99.90;;;;;;6129934;23;20041;-79
2021/05/01 01:23:50;;;;;;;30.90;23.58;;;7.30;99.90;;;;;;6130164;23;20018;-79
2021/05/01 01:26:16;;;;;;;32.40;22.48;;;7.30;99.90;;;;;;6131378;23;20018;-79
2021/05/01 01:28:44;;;;;;;30.27;22.08;;;7.30;99.90;;;;;;6132700;23;20021;-79
2021/05/01 01:31:15;;;;;;;30.25;21.25;;;7.30;99.90;;;;;;6131042;23;20026;-78
2021/05/01 01:33:41;;;;;;;30.67;21.70;;;7.30;99.90;;;;;;6132431;23;20014;-79
2021/05/01 01:36:08;;;;;;;30.30;21.73;;;7.40;99.90;;;;;;6131700;23;20030;-79
2021/05/01 01:38:39;;;;;;;30.70;21.70;;;7.30;99.90;;;;;;6131275;23;20071;-78
2021/05/01 01:41:05;;;;;;;32.10;23.02;;;7.30;99.90;;;;;;6129913;23;20018;-79
2021/05/01 01:43:37;;;;;;;34.78;22.77;;;7.30;99.90;;;;;;6125383;23;20105;-79
2021/05/01 01:46:04;;;;;;;33.00;23.10;;;7.20;99.90;;;;;;6126629;23;20045;-79
2021/05/01 01:48:30;;;;;;;33.47;22.98;;;7.20;99.90;;;;;;6124843;23;20069;-78
2021/05/01 01:50:56;;;;;;;36.25;22.85;;;7.20;99.90;;;;;;6124996;23;20328;-79
2021/05/01 01:53:23;;;;;;;31.92;22.90;;;7.20;99.90;;;;;;6125025;23;20076;-78
2021/05/01 01:55:55;;;;;;;36.35;24.30;;;7.20;99.90;;;;;;6126331;23;20046;-78
2021/05/01 01:58:21;;;;;;;31.65;21.48;;;7.20;99.90;;;;;;6127430;23;20463;-79
2021/05/01 02:00:50;;;;;;;30.35;20.63;;;7.10;99.90;;;;;;6126794;23;20045;-79
2021/05/01 02:03:21;;;;;;;28.33;20.80;;;7.20;99.90;;;;;;6128734;23;20025;-78
2021/05/01 02:05:47;;;;;;;31.60;20.27;;;7.20;99.90;;;;;;6130711;23;20022;-78
2021/05/01 02:08:19;;;;;;;29.52;20.50;;;7.20;99.90;;;;;;6130839;23;20033;-79
2021/05/01 02:10:45;;;;;;;28.27;20.05;;;7.20;99.90;;;;;;6104793;23;20054;-79
2021/05/01 02:13:11;;;;;;;30.55;19.90;;;7.20;99.90;;;;;;6130399;23;20026;-78
2021/05/01 02:15:43;;;;;;;27.15;18.80;;;7.20;99.90;;;;;;6131300;23;20025;-79
2021/05/01 02:18:09;;;;;;;30.13;20.27;;;7.20;99.90;;;;;;6106624;23;20049;-79
2021/05/01 02:20:40;;;;;;;33.28;21.83;;;7.20;99.90;;;;;;6133177;23;20048;-79
2021/05/01 02:23:07;;;;;;;31.30;22.00;;;7.20;99.90;;;;;;6105949;23;20025;-78
2021/05/01 02:25:34;;;;;;;29.30;20.95;;;7.20;99.90;;;;;;6106080;23;20024;-79
2021/05/01 02:28:00;;;;;;;31.67;22.48;;;7.30;99.90;;;;;;6128302;23;20018;-79
2021/05/01 02:30:32;;;;;;;30.10;21.17;;;7.30;99.90;;;;;;6123900;23;20053;-78
2021/05/01 02:32:59;;;;;;;30.85;21.95;;;7.30;99.90;;;;;;6123989;23;20018;-78
2021/05/01 02:35:29;;;;;;;28.65;20.60;;;7.30;99.90;;;;;;6124211;23;20057;-78
2021/05/01 02:38:00;;;;;;;30.55;21.95;;;7.30;99.90;;;;;;6126536;23;20097;-79
2021/05/01 02:40:31;;;;;;;33.70;22.60;;;7.30;99.90;;;;;;6126244;23;20082;-78
2021/05/01 02:42:58;;;;;;;33.55;22.85;;;7.30;99.90;;;;;;6130100;23;20359;-78
2021/05/01 02:45:30;;;;;;;34.50;22.47;;;7.30;99.90;;;;;;6131002;23;20044;-79
2021/05/01 02:47:57;;;;;;;33.45;22.90;;;7.30;99.90;;;;;;6128773;23;20041;-79
2021/05/01 02:50:28;;;;;;;35.13;22.25;;;7.30;99.90;;;;;;6125695;23;20053;-78
2021/05/01 02:52:54;;;;;;;32.90;23.27;;;7.30;99.90;;;;;;6123925;23;20022;-79
2021/05/01 02:55:21;;;;;;;33.70;22.60;;;7.30;99.90;;;;;;6124021;23;20030;-79
2021/05/01 02:57:53;;;;;;;33.35;22.73;;;7.30;99.90;;;;;;6125000;23;20049;-78
2021/05/01 03:00:26;;;;;;;28.45;20.13;;;7.30;99.90;;;;;;6123834;23;20443;-78
2021/05/01 03:02:58;;;;;;;31.30;21.60;;;7.30;99.90;;;;;;6126686;23;20062;-79
2021/05/01 03:05:25;;;;;;;30.77;20.65;;;7.30;99.90;;;;;;6126196;23;20069;-78
2021/05/01 03:07:51;;;;;;;28.95;19.48;;;7.20;99.90;;;;;;6126564;23;20021;-78
2021/05/01 03:10:25;;;;;;;29.13;20.20;;;7.20;99.90;;;;;;6126416;23;20425;-78
2021/05/01 03:12:56;;;;;;;28.00;19.73;;;7.20;99.90;;;;;;6126636;23;20097;-79
2021/05/01 03:15:28;;;;;;;28.70;19.60;;;7.20;99.90;;;;;;6126348;23;20053;-78
2021/05/01 03:17:56;;;;;;;29.40;21.10;;;7.20;99.90;;;;;;6101944;23;20053;-79
2021/05/01 03:20:22;;;;;;;31.20;21.25;;;7.20;99.90;;;;;;6126984;23;20514;-78
2021/05/01 03:22:49;;;;;;;29.77;21.02;;;7.20;99.90;;;;;;6125715;23;20018;-78
2021/05/01 03:25:20;;;;;;;28.45;20.80;;;7.30;99.90;;;;;;6126231;23;20355;-78
2021/05/01 03:27:51;;;;;;;28.80;20.05;;;7.20;99.90;;;;;;6126836;23;20025;-78
2021/05/01 03:30:23;;;;;;;26.55;20.40;;;7.30;99.90;;;;;;6126737;23;20045;-78
2021/05/01 03:32:49;;;;;;;27.98;20.50;;;7.30;99.90;;;;;;6101734;23;20332;-78
2021/05/01 03:35:15;;;;;;;27.10;19.67;;;7.20;99.90;;;;;;6126627;23;20049;-78
2021/05/01 03:37:42;;;;;;;29.20;19.80;;;7.30;99.90;;;;;;6128632;23;20081;-78
2021/05/01 03:40:14;;;;;;;28.55;20.42;;;7.20;99.90;;;;;;6127539;23;20371;-79
2021/05/01 03:42:45;;;;;;;26.60;18.70;;;7.30;99.90;;;;;;6131979;23;20014;-78
2021/05/01 03:45:17;;;;;;;29.38;20.52;;;7.30;99.90;;;;;;6131619;23;20014;-78
2021/05/01 03:47:43;;;;;;;30.10;21.17;;;7.30;99.90;;;;;;6130749;23;20018;-78
2021/05/01 03:50:09;;;;;;;28.70;20.17;;;7.30;99.90;;;;;;6129068;23;20026;-78
2021/05/01 03:52:36;;;;;;;29.25;20.60;;;7.30;99.90;;;;;;6131147;23;20045;-78
2021/05/01 03:55:04;;;;;;;29.52;20.77;;;7.30;99.90;;;;;;6131137;23;20026;-78
2021/05/01 03:57:31;;;;;;;30.13;19.67;;;7.30;99.90;;;;;;6131169;23;20084;-78
2021/05/01 03:59:57;;;;;;;28.13;20.52;;;7.30;99.90;;;;;;6131370;23;20026;-78
2021/05/01 04:02:30;;;;;;;29.13;21.45;;;7.30;99.90;;;;;;6131331;23;20022;-78
2021/05/01 04:05:03;;;;;;;28.70;20.13;;;7.30;99.90;;;;;;6131479;23;20041;-78
2021/05/01 04:07:34;;;;;;;30.33;20.57;;;7.30;99.90;;;;;;6131868;23;20038;-78
2021/05/01 04:10:06;;;;;;;27.63;19.50;;;7.30;99.90;;;;;;6131585;23;20022;-78
2021/05/01 04:12:33;;;;;;;30.77;20.17;;;7.30;99.90;;;;;;6131042;23;20059;-78
2021/05/01 04:15:05;;;;;;;28.75;20.17;;;7.20;99.90;;;;;;6131377;23;20056;-78
2021/05/01 04:17:31;;;;;;;31.30;22.85;;;7.20;99.90;;;;;;6131342;23;20045;-78
2021/05/01 04:19:57;;;;;;;31.17;21.50;;;7.20;99.90;;;;;;6130565;23;20014;-78
2021/05/01 04:22:28;;;;;;;29.88;20.08;;;7.20;99.90;;;;;;6129927;23;20447;-78
2021/05/01 04:24:55;;;;;;;28.60;20.33;;;7.20;99.90;;;;;;6129249;23;20029;-78
2021/05/01 04:27:26;;;;;;;30.67;19.33;;;7.20;99.90;;;;;;6130407;23;20049;-78
2021/05/01 04:29:52;;;;;;;29.05;21.20;;;7.20;99.90;;;;;;6127982;23;20355;-78
2021/05/01 04:32:24;;;;;;;30.58;20.38;;;7.20;99.90;;;;;;6126366;23;20052;-78
2021/05/01 04:34:50;;;;;;;30.15;20.38;;;7.20;99.90;;;;;;6126166;23;20033;-78
2021/05/01 04:37:17;;;;;;;27.67;20.23;;;7.10;99.90;;;;;;6126258;23;20048;-78
2021/05/01 04:39:43;;;;;;;29.67;20.88;;;7.10;99.90;;;;;;6127710;23;20065;-78
2021/05/01 04:42:09;;;;;;;29.30;20.15;;;7.10;99.90;;;;;;6129547;23;20022;-78
2021/05/01 04:44:36;;;;;;;29.65;20.58;;;7.10;99.90;;;;;;6129326;23;20049;-78
2021/05/01 04:47:08;;;;;;;28.45;19.92;;;7.10;99.90;;;;;;6126164;23;20018;-78
2021/05/01 04:49:34;;;;;;;28.00;20.40;;;7.20;99.90;;;;;;6126401;23;20018;-78
2021/05/01 04:52:05;;;;;;;31.77;21.70;;;7.20;99.90;;;;;;6124898;23;20424;-78
2021/05/01 04:54:37;;;;;;;27.17;19.00;;;7.20;99.90;;;;;;6126986;23;20109;-78
2021/05/01 04:57:03;;;;;;;30.67;19.50;;;7.20;99.90;;;;;;6129716;23;20022;-78
2021/05/01 04:59:30;;;;;;;28.30;20.30;;;7.20;99.90;;;;;;6129563;23;20073;-78
2021/05/01 05:01:56;;;;;;;29.02;20.63;;;7.20;99.90;;;;;;6128521;23;20029;-78
2021/05/01 05:04:22;;;;;;;33.15;20.70;;;7.20;99.90;;;;;;6130813;23;20493;-78
2021/05/01 05:06:54;;;;;;;29.85;21.55;;;7.30;99.90;;;;;;6130790;23;20014;-78
2021/05/01 05:09:20;;;;;;;31.85;22.15;;;7.30;99.90;;;;;;6130775;23;20022;-78
2021/05/01 05:11:51;;;;;;;31.48;21.65;;;7.30;99.90;;;;;;6128762;23;20045;-78
2021/05/01 05:14:18;;;;;;;36.08;23.17;;;7.40;99.90;;;;;;6105233;23;20498;-78
2021/05/01 05:16:44;;;;;;;32.90;22.08;;;7.40;99.90;;;;;;6130884;23;20073;-78
2021/05/01 05:19:10;;;;;;;30.75;20.95;;;7.40;99.90;;;;;;6129855;23;20054;-78
2021/05/01 05:21:37;;;;;;;31.77;21.38;;;7.40;99.90;;;;;;6129205;23;20022;-78
2021/05/01 05:24:08;;;;;;;30.23;20.40;;;7.40;99.90;;;;;;6130159;23;20021;-78
2021/05/01 05:26:39;;;;;;;32.50;21.40;;;7.40;99.90;;;;;;6130874;23;20096;-78
2021/05/01 05:29:09;;;;;;;31.00;21.38;;;7.40;99.90;;;;;;6130694;23;20077;-78
2021/05/01 05:31:40;;;;;;;29.73;21.17;;;7.40;99.90;;;;;;6129321;23;20514;-78
2021/05/01 05:34:06;;;;;;;34.13;22.85;;;7.40;99.90;;;;;;6130278;23;20439;-78
2021/05/01 05:36:33;;;;;;;34.92;24.05;;;7.40;99.90;;;;;;6100422;23;20026;-78
2021/05/01 05:38:59;;;;;;;33.55;21.58;;;7.40;99.90;;;;;;6126826;23;20021;-80
2021/05/01 05:41:26;;;;;;;36.13;23.10;;;7.50;99.90;;;;;;6128873;23;20021;-80
2021/05/01 05:43:52;;;;;;;35.85;22.95;;;7.50;99.90;;;;;;6129715;23;20054;-80
2021/05/01 05:46:19;;;;;;;39.78;24.15;;;7.40;99.90;;;;;;6129694;23;20036;-79
2021/05/01 05:48:50;;;;;;;37.85;23.75;;;7.50;99.90;;;;;;6129983;23;20018;-79
2021/05/01 05:51:16;;;;;;;33.90;23.63;;;7.50;99.90;;;;;;6128021;23;20459;-80
2021/05/01 05:53:42;;;;;;;36.83;24.35;;;7.50;99.90;;;;;;6125461;23;20026;-79
2021/05/01 05:56:09;;;;;;;36.72;24.90;;;7.60;99.90;;;;;;6129996;23;20081;-80
2021/05/01 05:58:36;;;;;;;34.53;23.20;;;7.60;99.90;;;;;;6129307;23;20053;-79
2021/05/01 06:01:03;;;;;;;35.97;22.73;;;7.60;99.90;;;;;;6130144;23;20014;-80
2021/05/01 06:03:31;;;;;;;33.10;20.50;;;7.60;99.90;;;;;;6125709;23;20033;-79
2021/05/01 06:06:04;;;;;;;36.58;24.58;;;7.60;99.90;;;;;;6102433;23;20022;-80
2021/05/01 06:08:38;;;;;;;39.25;24.27;;;7.70;99.90;;;;;;6116770;23;20022;-79
2021/05/01 06:11:05;;;;;;;36.13;23.48;;;7.70;99.90;;;;;;6089074;23;20426;-79
2021/05/01 06:13:33;;;;;;;34.30;24.08;;;7.70;99.90;;;;;;6114863;23;20096;-79
2021/05/01 06:16:05;;;;;;;;;;;7.70;99.90;;;;;;6124020;23;20029;-79
2021/05/01 06:18:38;;;;;;;35.58;23.23;;;7.80;99.90;;;;;;6106320;23;19973;-80
2021/05/01 06:21:08;;;;;;;40.22;25.15;;;7.80;99.90;;;;;;6129016;23;20025;-80
2021/05/01 06:23:40;;;;;;;41.42;23.77;;;7.80;99.90;;;;;;6131445;23;20014;-80
2021/05/01 06:26:11;;;;;;;37.13;24.10;;;7.80;99.90;;;;;;6130028;23;20076;-79
2021/05/01 06:28:37;;;;;;;38.25;23.98;;;7.90;99.90;;;;;;6129977;23;20014;-79
2021/05/01 06:31:09;;;;;;;37.17;24.15;;;7.90;99.90;;;;;;6132162;23;20029;-80
2021/05/01 06:33:41;;;;;;;38.63;25.00;;;7.90;99.90;;;;;;6129777;23;20049;-79
2021/05/01 06:36:13;;;;;;;40.97;25.20;;;7.90;99.90;;;;;;6129988;23;20443;-80
2021/05/01 06:38:40;;;;;;;37.17;22.90;;;8.00;99.90;;;;;;6129339;23;20050;-80
2021/05/01 06:41:16;;;;;;;38.58;24.33;;;8.00;99.90;;;;;;6128440;23;20041;-80
2021/05/01 06:44:03;;;;;;;40.53;26.15;;;8.00;99.90;;;;;;6104550;23;20045;-79
2021/05/01 06:46:40;;;;;;;41.08;26.20;;;8.00;99.90;;;;;;6129285;23;20052;-79
2021/05/01 06:49:27;;;;;;;40.05;25.08;;;8.00;99.90;;;;;;6130024;23;20072;-80
2021/05/01 06:52:03;;;;;;;40.85;24.70;;;8.00;99.90;;;;;;6129405;23;20450;-80
2021/05/01 06:54:30;;;;;;;41.15;24.27;;;8.00;99.90;;;;;;6129172;23;20038;-80
2021/05/01 06:57:02;;;;;;;40.65;25.13;;;8.00;99.90;;;;;;6128888;23;20018;-80
2021/05/01 06:59:28;;;;;;;39.38;24.80;;;8.00;99.90;;;;;;6129377;23;20018;-80
2021/05/01 07:01:55;;;;;;;40.75;25.02;;;8.00;99.90;;;;;;6128512;23;20447;-79
2021/05/01 07:04:26;;;;;;;40.05;25.40;;;8.10;99.90;;;;;;6105263;23;20097;-79
2021/05/01 07:06:54;;;;;;;40.45;25.33;;;8.10;99.90;;;;;;6129044;23;20021;-79
2021/05/01 07:09:20;;;;;;;41.28;25.90;;;8.10;99.90;;;;;;6128101;23;20053;-78
2021/05/01 07:11:53;;;;;;;41.22;26.40;;;8.10;99.90;;;;;;6127950;23;20038;-79
2021/05/01 07:14:21;;;;;;;41.92;26.63;;;8.10;99.90;;;;;;6128804;23;20021;-79
2021/05/01 07:16:52;;;;;;;45.07;29.53;;;8.10;99.90;;;;;;6129082;23;20050;-79
2021/05/01 07:19:19;;;;;;;44.22;27.95;;;8.10;99.90;;;;;;6128902;23;20029;-79
2021/05/01 07:21:50;;;;;;;54.05;33.03;;;8.10;99.90;;;;;;6129036;23;20730;-79
2021/05/01 07:24:17;;;;;;;57.85;33.47;;;8.10;99.90;;;;;;6127880;23;20029;-79
2021/05/01 07:26:49;;;;;;;52.10;30.90;;;8.10;99.90;;;;;;6130062;23;20017;-79
2021/05/01 07:29:23;;;;;;;51.03;29.23;;;8.00;99.90;;;;;;6129518;23;20014;-79
2021/05/01 07:31:57;;;;;;;38.45;24.88;;;8.10;99.90;;;;;;6129319;23;20022;-79
2021/05/01 07:34:26;;;;;;;53.63;30.40;;;8.10;99.90;;;;;;6129097;23;20088;-79
2021/05/01 07:36:55;;;;;;;39.92;25.13;;;8.10;99.90;;;;;;6128834;23;20021;-79
2021/05/01 07:39:26;;;;;;;40.35;25.13;;;8.10;99.90;;;;;;6129623;23;20402;-79
2021/05/01 07:41:57;;;;;;;45.33;27.50;;;8.10;99.90;;;;;;6129417;23;20013;-79
2021/05/01 07:44:33;;;;;;;41.55;26.70;;;8.10;99.90;;;;;;6129979;23;20022;-79
2021/05/01 07:47:01;;;;;;;47.08;27.88;;;8.20;99.90;;;;;;6132588;23;20026;-79
2021/05/01 07:49:32;;;;;;;47.60;28.55;;;8.10;99.90;;;;;;6131649;23;20068;-79
2021/05/01 07:52:00;;;;;;;47.40;27.88;;;8.10;99.90;;;;;;6131335;23;20026;-79
2021/05/01 07:54:27;;;;;;;49.20;28.88;;;8.10;99.90;;;;;;6131439;23;20022;-79
2021/05/01 07:56:58;;;;;;;47.22;27.67;;;8.10;99.90;;;;;;6131522;23;20034;-80
2021/05/01 07:59:25;;;;;;;44.03;27.65;;;8.20;99.90;;;;;;6132511;23;20084;-80
2021/05/01 08:01:51;;;;;;;50.97;29.10;;;8.20;99.90;;;;;;6130634;23;20057;-79
2021/05/01 08:04:22;;;;;;;45.92;28.25;;;8.30;99.90;;;;;;6131059;23;20399;-79
2021/05/01 08:06:54;;;;;;;43.35;26.67;;;8.30;99.90;;;;;;6131408;23;20014;-79
2021/05/01 08:09:21;;;;;;;40.38;24.10;;;8.30;99.90;;;;;;6130368;23;20394;-79
2021/05/01 08:11:52;;;;;;;39.58;24.92;;;8.30;99.90;;;;;;6129238;23;20022;-79
2021/05/01 08:14:18;;;;;;;42.88;25.77;;;8.40;99.90;;;;;;6107030;23;20058;-79
2021/05/01 08:16:50;;;;;;;38.72;23.65;;;8.40;99.90;;;;;;6131367;23;20022;-80
2021/05/01 08:19:16;;;;;;;39.03;25.08;;;8.50;99.90;;;;;;6130886;23;20026;-79
2021/05/01 08:21:42;;;;;;;37.67;24.98;;;8.40;99.90;;;;;;6129882;23;20022;-78
2021/05/01 08:24:09;;;;;;;38.22;23.27;;;8.40;99.90;;;;;;6131014;23;20105;-79
2021/05/01 08:26:35;;;;;;;33.47;23.08;;;8.50;99.90;;;;;;6130200;23;20017;-79
2021/05/01 08:29:02;;;;;;;39.38;23.55;;;8.50;99.90;;;;;;6131433;23;20013;-80
2021/05/01 08:31:34;;;;;;;38.65;22.70;;;8.60;99.90;;;;;;6129336;23;20082;-79
2021/05/01 08:34:00;;;;;;;31.52;21.33;;;8.70;99.90;;;;;;6106078;23;20029;-80
2021/05/01 08:36:27;;;;;;;34.22;21.90;;;8.70;99.90;;;;;;6130333;23;20018;-80
2021/05/01 08:38:53;;;;;;;32.92;21.10;;;8.70;99.90;;;;;;6129983;23;20033;-79
2021/05/01 08:41:21;;;;;;;33.95;21.63;;;8.80;99.90;;;;;;6130378;23;20049;-80
2021/05/01 08:43:53;;;;;;;31.90;20.10;;;8.80;99.90;;;;;;6129261;23;20069;-80
2021/05/01 08:46:24;;;;;;;35.85;22.08;;;8.90;99.90;;;;;;6128728;23;20042;-79
2021/05/01 08:48:51;;;;;;;31.77;21.40;;;8.90;99.90;;;;;;6128532;23;20018;-80
2021/05/01 08:51:17;;;;;;;36.00;22.30;;;8.90;99.90;;;;;;6105638;23;20463;-80
2021/05/01 08:53:44;;;;;;;30.63;20.17;;;9.00;99.90;;;;;;6129715;23;20026;-80
2021/05/01 08:56:15;;;;;;;32.85;20.75;;;9.00;99.90;;;;;;6129386;23;20018;-79
2021/05/01 08:58:41;;;;;;;30.98;19.73;;;9.00;99.90;;;;;;6129224;23;20041;-80
2021/05/01 09:01:12;;;;;;;29.33;19.15;;;9.00;99.90;;;;;;6127439;23;20455;-81
2021/05/01 09:03:43;;;;;;;32.65;20.90;;;9.10;99.90;;;;;;6129082;23;20013;-81
2021/05/01 09:06:10;;;;;;;30.80;19.65;;;9.20;99.90;;;;;;6129425;23;20017;-79
2021/05/01 09:08:41;;;;;;;32.70;20.00;;;9.10;99.90;;;;;;6131182;23;20014;-80
2021/05/01 09:11:12;;;;;;;32.22;20.35;;;9.10;99.90;;;;;;6123090;23;20116;-80
2021/05/01 09:13:48;;;;;;;32.95;20.58;;;9.00;99.90;;;;;;6129955;23;20068;-80
2021/05/01 09:16:16;;;;;;;31.05;19.98;;;9.10;99.90;;;;;;6126174;23;20030;-80
2021/05/01 09:18:50;;;;;;;32.70;21.27;;;9.10;99.90;;;;;;6129225;23;20018;-79
2021/05/01 09:21:30;;;;;;;30.08;19.08;;;9.10;99.90;;;;;;6128481;23;20017;-81
2021/05/01 09:23:57;;;;;;;28.80;18.77;;;9.20;99.90;;;;;;6129558;23;20022;-81
2021/05/01 09:26:42;;;;;;;30.95;19.58;;;9.20;99.90;;;;;;6129113;23;20018;-74
2021/05/01 09:29:27;;;;;;;30.08;19.33;;;9.20;99.90;;;;;;6123210;23;20014;-78
2021/05/01 09:32:01;;;;;;;28.63;19.13;;;9.30;99.90;;;;;;6122706;23;20048;-78
2021/05/01 09:34:43;;;;;;;29.92;19.13;;;9.30;99.90;;;;;;6123180;23;20422;-78
2021/05/01 09:37:19;;;;;;;35.72;23.00;;;9.20;99.90;;;;;;6122810;23;20056;-78
2021/05/01 09:39:53;;;;;;;52.90;29.00;;;9.20;99.90;;;;;;6121238;23;20166;-77
2021/05/01 09:42:27;;;;;;;33.33;21.30;;;9.20;99.90;;;;;;6121115;23;20073;-78
2021/05/01 09:45:09;;;;;;;38.78;25.88;;;9.10;99.90;;;;;;6098939;23;20049;-78
2021/05/01 09:47:50;;;;;;;30.70;21.45;;;9.10;99.90;;;;;;6126895;23;20049;-76
2021/05/01 09:50:23;;;;;;;27.58;19.75;;;9.10;99.90;;;;;;6122487;23;20018;-78
2021/05/01 09:53:01;;;;;;;28.20;19.73;;;9.10;99.90;;;;;;6122035;23;20026;-77
2021/05/01 09:55:49;;;;;;;25.83;17.15;;;9.10;99.90;;;;;;6127046;23;20033;-75
2021/05/01 09:58:23;;;;;;;26.65;18.30;;;9.10;99.90;;;;;;6124036;23;20540;-75
2021/05/01 10:00:51;;;;;;;26.42;17.40;;;9.10;99.90;;;;;;6121892;23;20406;-76
2021/05/01 10:03:28;;;;;;;27.92;18.73;;;9.10;99.90;;;;;;6122091;23;20045;-75
2021/05/01 10:06:00;;;;;;;32.58;20.60;;;9.10;99.90;;;;;;6123801;23;20020;-75
2021/05/01 10:08:32;;;;;;;28.73;19.52;;;9.10;99.90;;;;;;6122677;23;20458;-75
2021/05/01 10:11:13;;;;;;;28.27;18.25;;;9.10;99.90;;;;;;6104063;23;20092;-81
2021/05/01 10:13:56;;;;;;;27.60;18.67;;;9.10;99.90;;;;;;6137061;23;20366;-81
2021/05/01 10:16:29;;;;;;;25.33;18.60;;;9.10;99.90;;;;;;6137347;23;20486;-83
2021/05/01 10:19:11;;;;;;;23.73;16.95;;;9.20;99.90;;;;;;6136874;23;20041;-85
2021/05/01 10:21:44;;;;;;;28.48;17.20;;;9.20;99.90;;;;;;6137482;23;20014;-83
2021/05/01 10:24:16;;;;;;;;;;;9.30;99.90;;;;;;6138301;23;20038;-82
2021/05/01 10:26:50;;;;;;;23.00;16.00;;;9.30;99.90;;;;;;6113269;23;19990;-80
2021/05/01 10:29:32;;;;;;;24.85;17.67;;;9.40;99.90;;;;;;6109342;23;20018;-79
2021/05/01 10:31:59;;;;;;;23.05;16.52;;;9.40;99.90;;;;;;6102288;23;20025;-78
2021/05/01 10:34:27;;;;;;;25.08;16.52;;;9.40;99.90;;;;;;6126620;23;20029;-80
2021/05/01 10:37:01;;;;;;;23.42;15.73;;;9.40;99.90;;;;;;6126273;23;20037;-80
2021/05/01 10:39:43;;;;;;;23.45;15.25;;;9.40;99.90;;;;;;6127738;23;20060;-81
2021/05/01 10:42:13;;;;;;;22.10;14.93;;;9.40;99.90;;;;;;6127192;23;20053;-81
2021/05/01 10:44:53;;;;;;;22.67;15.77;;;9.40;99.90;;;;;;6128089;23;20382;-79
2021/05/01 10:47:25;;;;;;;24.75;16.52;;;9.50;99.90;;;;;;6128111;23;20025;-80
2021/05/01 10:49:58;;;;;;;22.02;16.38;;;9.50;99.90;;;;;;6127819;23;20463;-78
2021/05/01 10:52:24;;;;;;;22.90;16.33;;;9.60;99.90;;;;;;6126368;23;20486;-79
2021/05/01 10:55:06;;;;;;;20.77;15.10;;;9.60;99.90;;;;;;6127643;23;20097;-81
2021/05/01 10:57:39;;;;;;;21.70;15.30;;;9.70;99.90;;;;;;6128469;23;20022;-80
2021/05/01 11:00:10;;;;;;;21.90;15.52;;;9.80;99.90;;;;;;6126618;23;20764;-80
2021/05/01 11:02:41;;;;;;;20.73;14.80;;;9.80;99.90;;;;;;6125387;23;20340;-81
2021/05/01 11:05:13;;;;;;;19.02;14.05;;;9.90;99.90;;;;;;6129299;23;20018;-80
2021/05/01 11:08:06;;;;;;;20.40;14.52;;;10.00;99.90;;;;;;6128922;23;20100;-80
2021/05/01 11:10:34;;;;;;;19.65;14.93;;;10.10;99.90;;;;;;6130400;23;20018;-81
2021/05/01 11:13:04;;;;;;;18.00;12.93;;;10.10;99.90;;;;;;6128594;23;20018;-81
2021/05/01 11:15:49;;;;;;;18.15;13.00;;;10.20;99.90;;;;;;6130130;23;20022;-81
2021/05/01 11:18:24;;;;;;;18.50;13.32;;;10.30;99.90;;;;;;6128376;23;20026;-81
2021/05/01 11:21:00;;;;;;;17.88;14.02;;;10.40;99.90;;;;;;6128286;23;20010;-79
2021/05/01 11:23:29;;;;;;;17.60;12.93;;;10.40;99.90;;;;;;6129606;23;20057;-80
2021/05/01 11:25:59;;;;;;;19.88;13.43;;;10.40;99.90;;;;;;6129970;23;20018;-80
2021/05/01 11:28:26;;;;;;;22.00;15.63;;;10.40;99.90;;;;;;6130214;23;20029;-81
2021/05/01 11:30:58;;;;;;;17.98;13.70;;;10.40;99.90;;;;;;6129450;23;20526;-81
2021/05/01 11:33:32;;;;;;;20.77;15.07;;;10.40;99.90;;;;;;6129205;23;20030;-81
2021/05/01 11:35:59;;;;;;;21.13;16.25;;;10.40;99.90;;;;;;6130820;23;20451;-81
2021/05/01 11:38:37;;;;;;;21.90;15.77;;;10.40;99.90;;;;;;6132483;23;20447;-79
2021/05/01 11:41:09;;;;;;;21.13;15.50;;;10.40;99.90;;;;;;6136424;23;20018;-80
2021/05/01 11:43:38;;;;;;;20.85;15.23;;;10.50;99.90;;;;;;6135925;23;20026;-80
2021/05/01 11:46:15;;;;;;;20.08;15.43;;;10.60;99.90;;;;;;6136387;23;20018;-80
2021/05/01 11:48:56;;;;;;;20.85;14.75;;;10.50;99.90;;;;;;6112484;23;20018;-80
2021/05/01 11:51:31;;;;;;;21.83;15.77;;;10.60;99.90;;;;;;6136341;23;20083;-80
2021/05/01 11:54:20;;;;;;;21.77;15.32;;;10.60;99.90;;;;;;6135431;23;20443;-80
2021/05/01 11:56:58;;;;;;;23.23;16.58;;;10.70;99.90;;;;;;6131289;23;20022;-80
2021/05/01 11:59:26;;;;;;;20.67;15.27;;;10.70;99.90;;;;;;6130123;23;20026;-80
2021/05/01 12:02:01;;;;;;;21.42;15.30;;;10.70;99.90;;;;;;6129661;23;20045;-81
2021/05/01 12:05:05;;;;;;;19.33;14.10;;;10.70;99.90;;;;;;6130495;23;20041;-80
2021/05/01 12:07:41;;;;;;;19.67;14.50;;;10.70;99.90;;;;;;6129154;23;20439;-80
2021/05/01 12:10:09;;;;;;;20.40;15.18;;;10.80;99.90;;;;;;6126082;23;20095;-79
2021/05/01 12:13:02;;;;;;;23.10;16.70;;;10.70;99.90;;;;;;6128096;23;20029;-80
2021/05/01 12:15:45;;;;;;;21.13;16.15;;;10.70;99.90;;;;;;6103793;23;20513;-80
2021/05/01 12:18:11;;;;;;;24.05;17.67;;;10.60;99.90;;;;;;6129104;23;20018;-78
2021/05/01 12:20:39;;;;;;;22.55;17.35;;;10.70;99.90;;;;;;6103219;23;20018;-80
2021/05/01 12:23:13;;;;;;;24.00;17.52;;;10.70;99.90;;;;;;6127764;23;20013;-80
2021/05/01 12:25:45;;;;;;;22.55;16.90;;;10.80;99.90;;;;;;6129446;23;20080;-80
2021/05/01 12:28:36;;;;;;;22.77;16.08;;;10.80;99.90;;;;;;6123724;23;20328;-75
2021/05/01 12:31:08;;;;;;;22.02;16.27;;;10.90;99.90;;;;;;6124985;23;20018;-75
2021/05/01 12:33:34;;;;;;;23.45;17.17;;;10.80;99.90;;;;;;6122890;23;20049;-75
2021/05/01 12:36:04;;;;;;;24.38;17.25;;;10.80;99.90;;;;;;6124961;23;20084;-75
2021/05/01 12:38:38;;;;;;;22.63;16.90;;;10.80;99.90;;;;;;6125289;23;20450;-75
2021/05/01 12:41:09;;;;;;;23.00;17.48;;;10.80;99.90;;;;;;6123437;23;20101;-75
2021/05/01 12:43:42;;;;;;;24.08;18.05;;;10.90;99.90;;;;;;6123380;23;20530;-75
2021/05/01 12:46:37;;;;;;;22.52;16.05;;;10.80;99.90;;;;;;6123730;23;20061;-76
2021/05/01 12:49:05;;;;;;;21.98;17.38;;;10.80;99.90;;;;;;6123641;23;20045;-74
2021/05/01 12:51:34;;;;;;;26.05;18.92;;;10.80;99.90;;;;;;6123692;23;20049;-75
2021/05/01 12:54:17;;;;;;;27.02;19.25;;;10.60;99.90;;;;;;6124930;23;20101;-75